Kezdőlap
METAR-TAF:

METAR-TAF

Repülőterek :

Imperial Municipal Airport

Imperial, Nebraska, Amerikai Egyesült Államok

földrajzi szélesség: 40-31N, földrajzi hosszúság: 101-37W, magasság: 997 m

Jelenlegi meteorológiai megfigyelések

A jelentés 39 perccel ezelõtt készült, 19:53 UTC
Északnyugati szél 9 kt
Hőmérséklet 24°C
Páratartalom 31%
Légköri nyomás 1009 hPa
Látótávolság: 16.1 km
Kevés felhő 11000 lábon

METAR: KIML 261953Z AUTO 32009KT 10SM FEW110 24/06 A2981 RMK AO2 SLP076 T02440056

Idő: 14:32 (20:32 UTC)


TAF: hiányzik

Meteorológiai megfigyelések és előrejelzések több, mint 4000 repülőtéren (METAR és TAF jelentéseket).

A térképen piros és sárga pontok jelzik az elérhető meteorológiai állomásokat.

Mozgassa az egeret a pont fölött, hogy megjelenjen az állomás neve.

Azután kattintson az időjárási megfigyelések és előrejelzések megtekintéséhez.

A térkép megváltoztatása: kattintson a fekete keresztel jelölt zöld gombra ráközelítéshez, a vonallal jelölt zöld gombra távolításhoz, vagy a zöld nyilakra a szomszédos térképek eléréséhez.


METAR-TAF: